Time;durP1;ratioP1;P1;durP2;ratioP2;P2;SDS_P1;SDS_P2;PMS_P1;PMS_P2;Temp;Humidity;BMP_temperature;BMP_pressure;BME280_temperature;BME280_humidity;BME280_pressure;Samples;Min_cycle;Max_cycle;Signal;HPM_P1;HPM_P2
2023/04/17 00:10:45;;;;;;;3.80;1.42;;;;;;;10.20;80.87;100282.75;3038626;23;20034;-78
2023/04/17 00:14:26;;;;;;;2.55;1.33;;;;;;;10.02;81.50;100275.91;4957553;28;20067;-76
2023/04/17 00:19:43;;;;;;;4.35;1.67;;;;;;;9.53;87.28;100273.19;5344057;23;20058;-78
2023/04/17 00:23:02;;;;;;;2.15;1.60;;;;;;;9.29;90.92;100267.81;5037931;23;20102;-78
2023/04/17 00:52:01;;;;;;;1.60;1.08;;;;;;;9.05;91.30;100271.19;5104686;23;20061;-79
2023/04/17 01:14:27;;;;;;;1.92;1.10;;;;;;;9.36;89.62;100250.31;5908400;23;20043;-82
2023/04/17 01:23:27;;;;;;;2.72;1.15;;;;;;;9.02;91.58;100252.16;5102544;23;20062;-76
2023/04/17 01:50:07;;;;;;;1.20;1.10;;;;;;;8.94;90.73;100245.03;5132815;23;20046;-77
2023/04/17 01:53:13;;;;;;;1.20;1.10;;;;;;;8.78;95.15;100240.47;4993756;28;20101;-82
2023/04/17 01:58:42;;;;;;;1.73;1.17;;;;;;;9.04;93.35;100250.22;5285091;23;20099;-81
2023/04/17 02:02:42;;;;;;;3.30;1.30;;;;;;;9.03;91.63;100248.53;4886821;29;20139;-77
2023/04/17 03:21:03;;;;;;;2.63;1.35;;;;;;;8.23;100.00;100224.13;6006746;23;20032;-79
2023/04/17 03:45:12;;;;;;;;;;;;;;;8.19;100.00;100254.44;5608571;23;20313;-82
2023/04/17 04:19:45;;;;;;;4.68;1.60;;;;;;;8.11;100.00;100254.38;4795389;23;20039;-80
2023/04/17 04:30:49;;;;;;;3.63;0.93;;;;;;;8.15;100.00;100266.28;5788956;23;20037;-81
2023/04/17 04:33:19;;;;;;;2.40;1.55;;;;;;;7.95;100.00;100271.91;4983881;28;20042;-78
2023/04/17 04:35:46;;;;;;;1.65;1.27;;;;;;;7.83;100.00;100273.91;4984605;28;20038;-78
2023/04/17 04:38:13;;;;;;;2.60;1.25;;;;;;;7.71;100.00;100281.22;4981898;28;20065;-77
2023/04/17 04:40:42;;;;;;;2.85;1.63;;;;;;;7.66;100.00;100272.94;4985040;28;20072;-78
2023/04/17 04:43:11;;;;;;;5.85;1.55;;;;;;;7.53;100.00;100272.47;4983061;28;20042;-84
2023/04/17 04:45:42;;;;;;;4.05;1.58;;;;;;;7.57;100.00;100279.09;4978465;28;20473;-78
2023/04/17 04:48:07;;;;;;;2.22;1.45;;;;;;;7.78;100.00;100276.19;4965249;28;20086;-79
2023/04/17 04:50:52;;;;;;;2.75;1.88;;;;;;;7.99;100.00;100283.78;4985261;28;20058;-81
2023/04/17 04:53:37;;;;;;;5.15;1.48;;;;;;;8.01;100.00;100290.59;4982680;28;20051;-84
2023/04/17 04:56:37;;;;;;;6.32;1.42;;;;;;;7.84;100.00;100293.22;4972428;28;20038;-80
2023/04/17 04:59:03;;;;;;;1.80;1.30;;;;;;;7.68;100.00;100283.34;4970835;28;20027;-78
2023/04/17 05:01:58;;;;;;;4.25;2.10;;;;;;;7.58;100.00;100283.41;4990669;28;20042;-84
2023/04/17 05:04:25;;;;;;;5.63;1.83;;;;;;;7.68;100.00;100286.81;4988835;28;20027;-82
2023/04/17 05:07:03;;;;;;;3.05;1.90;;;;;;;7.61;100.00;100291.03;4985877;28;20078;-84
2023/04/17 05:09:35;;;;;;;5.43;2.60;;;;;;;7.57;100.00;100294.91;4989624;28;20494;-82
2023/04/17 05:12:07;;;;;;;9.38;2.38;;;;;;;7.84;100.00;100285.31;4983996;28;20008;-82
2023/04/17 05:14:33;;;;;;;13.38;2.67;;;;;;;7.85;100.00;100293.09;4987147;28;20375;-82
2023/04/17 05:22:30;;;;;;;4.90;1.50;;;;;;;7.95;100.00;100304.41;4999728;28;20043;-78
2023/04/17 05:25:04;;;;;;;10.73;1.75;;;;;;;7.89;100.00;100309.44;4983141;28;20043;-79
2023/04/17 05:27:30;;;;;;;3.53;1.65;;;;;;;7.95;100.00;100311.47;4992746;28;20045;-80
2023/04/17 05:29:57;;;;;;;2.42;1.23;;;;;;;7.92;100.00;100314.41;4987078;28;20062;-80
2023/04/17 05:33:01;;;;;;;9.90;1.95;;;;;;;7.98;100.00;100325.19;4988990;28;20015;-78
2023/04/17 05:39:55;;;;;;;8.18;1.95;;;;;;;8.06;100.00;100321.78;4995410;28;20053;-81
2023/04/17 05:45:06;;;;;;;3.37;1.83;;;;;;;8.15;100.00;100326.97;5127274;23;20063;-84
2023/04/17 05:47:43;;;;;;;2.20;1.60;;;;;;;8.22;100.00;100322.75;4970151;28;20047;-78
2023/04/17 05:50:46;;;;;;;3.25;1.88;;;;;;;8.15;100.00;100310.34;4967421;28;20039;-81
2023/04/17 05:53:49;;;;;;;8.95;2.22;;;;;;;8.01;100.00;100310.88;5017769;23;20066;-79
2023/04/17 05:56:39;;;;;;;;;;;;;;;8.27;100.00;100324.97;4978202;28;20047;-82
2023/04/17 06:10:07;;;;;;;6.25;1.95;;;;;;;8.43;100.00;100345.41;5037047;23;20266;-86
2023/04/17 06:12:34;;;;;;;8.43;2.33;;;;;;;8.89;100.00;100346.91;4962427;28;20445;-89
2023/04/17 06:15:04;;;;;;;7.18;2.20;;;;;;;9.04;100.00;100346.19;4978946;28;20062;-90
2023/04/17 06:17:30;;;;;;;13.18;1.98;;;;;;;9.38;100.00;100346.19;4983285;28;20378;-84
2023/04/17 06:19:56;;;;;;;5.85;1.80;;;;;;;9.64;95.07;100354.09;4996689;28;20497;-87
2023/04/17 06:22:21;;;;;;;4.72;2.17;;;;;;;9.51;95.34;100357.16;4999059;28;20073;-87
2023/04/17 06:24:47;;;;;;;9.98;1.70;;;;;;;9.54;94.21;100359.50;4998810;28;20490;-85
2023/04/17 06:27:12;;;;;;;3.78;1.60;;;;;;;9.92;91.90;100357.28;4982082;28;20031;-84
2023/04/17 06:29:38;;;;;;;3.97;1.60;;;;;;;9.85;92.49;100357.94;4972406;28;20073;-87
2023/04/17 06:32:05;;;;;;;8.27;1.60;;;;;;;10.31;90.09;100353.91;4976385;28;20573;-84
2023/04/17 06:34:30;;;;;;;2.58;1.65;;;;;;;10.55;86.39;100355.75;4976070;28;20118;-87
2023/04/17 06:36:57;;;;;;;3.50;1.38;;;;;;;10.86;84.72;100364.69;4979051;28;20034;-88
2023/04/17 06:39:26;;;;;;;5.05;1.58;;;;;;;10.93;82.13;100362.19;5000944;28;20042;-87
2023/04/17 06:41:52;;;;;;;4.15;1.55;;;;;;;11.30;81.01;100358.97;4999135;28;20030;-89
2023/04/17 06:44:25;;;;;;;3.53;1.30;;;;;;;11.38;79.89;100364.22;4997209;28;20125;-86
2023/04/17 06:46:52;;;;;;;2.55;1.30;;;;;;;11.07;80.52;100356.19;5018221;28;20023;-83
2023/04/17 06:49:17;;;;;;;2.45;1.58;;;;;;;10.71;84.07;100363.69;5012479;28;20030;-85
2023/04/17 06:51:44;;;;;;;3.63;1.40;;;;;;;10.74;84.94;100371.31;5003208;28;20058;-85
2023/04/17 06:54:10;;;;;;;5.65;1.42;;;;;;;10.69;87.29;100371.00;4999085;28;20034;-86
2023/04/17 06:56:36;;;;;;;9.48;2.00;;;;;;;10.63;89.66;100369.00;4996511;28;20042;-86
2023/04/17 06:59:02;;;;;;;5.03;1.70;;;;;;;10.63;90.29;100369.00;4977886;28;20065;-85
2023/04/17 07:01:30;;;;;;;8.52;2.40;;;;;;;10.69;90.10;100378.09;4994829;28;20532;-86
2023/04/17 07:03:56;;;;;;;6.82;2.13;;;;;;;10.66;90.52;100379.28;4995585;28;20030;-86
2023/04/17 07:06:23;;;;;;;3.53;1.27;;;;;;;10.70;90.58;100380.59;4996510;28;20421;-84
2023/04/17 07:08:48;;;;;;;7.40;2.22;;;;;;;10.71;89.58;100376.94;4986870;28;20374;-87
2023/04/17 07:11:14;;;;;;;5.55;1.83;;;;;;;10.74;86.26;100387.22;4996777;28;20030;-86
2023/04/17 07:13:40;;;;;;;5.30;1.50;;;;;;;10.95;83.36;100383.22;4977652;28;20050;-86
2023/04/17 07:16:07;;;;;;;4.72;1.65;;;;;;;11.04;82.13;100393.66;4978947;28;20429;-87
2023/04/17 07:18:33;;;;;;;5.32;1.52;;;;;;;11.18;84.17;100405.38;4973698;28;20031;-87
2023/04/17 07:20:59;;;;;;;4.00;1.70;;;;;;;11.34;83.04;100416.78;4998222;28;20038;-86
2023/04/17 07:23:24;;;;;;;2.47;1.42;;;;;;;11.37;81.02;100415.63;4998899;28;20540;-88
2023/04/17 07:25:50;;;;;;;2.88;1.27;;;;;;;11.76;79.96;100421.84;5000150;28;20038;-87
2023/04/17 07:28:16;;;;;;;7.53;1.50;;;;;;;12.34;77.26;100421.38;4994056;28;20038;-87
2023/04/17 07:30:41;;;;;;;2.58;1.77;;;;;;;13.31;71.72;100425.94;4982048;28;20026;-88
2023/04/17 07:33:08;;;;;;;2.95;1.67;;;;;;;13.94;66.54;100428.03;4984661;28;20042;-88
2023/04/17 07:35:34;;;;;;;5.88;1.60;;;;;;;14.41;64.59;100418.75;4998423;28;20046;-87
2023/04/17 07:38:02;;;;;;;5.07;1.77;;;;;;;14.23;64.67;100423.63;4998809;28;20117;-88
2023/04/17 07:40:32;;;;;;;2.17;1.42;;;;;;;13.40;70.32;100400.03;4998829;28;20047;-88
2023/04/17 07:42:58;;;;;;;4.63;1.77;;;;;;;13.01;74.14;100373.66;4999593;28;20046;-85
2023/04/17 07:45:23;;;;;;;4.97;1.52;;;;;;;12.60;77.92;100367.84;4996316;28;20030;-88
2023/04/17 07:47:52;;;;;;;3.35;1.55;;;;;;;12.49;79.66;100365.63;4990925;28;20498;-89
2023/04/17 07:50:17;;;;;;;4.13;1.98;;;;;;;12.32;79.49;100356.97;4984941;28;20097;-85
2023/04/17 07:52:43;;;;;;;4.57;2.00;;;;;;;12.28;81.30;100353.00;4987062;28;20517;-86
2023/04/17 07:55:08;;;;;;;6.68;2.17;;;;;;;12.26;81.56;100360.31;4991764;28;20389;-87
2023/04/17 07:57:34;;;;;;;2.45;1.48;;;;;;;12.50;79.61;100361.13;4981920;28;20118;-87
2023/04/17 08:00:00;;;;;;;3.70;1.83;;;;;;;12.46;80.54;100368.66;4996781;28;20555;-86
2023/04/17 08:02:26;;;;;;;5.05;2.38;;;;;;;12.42;81.84;100365.53;4987728;28;20062;-88
2023/04/17 08:04:54;;;;;;;11.98;2.28;;;;;;;12.48;83.53;100374.59;4989877;28;20117;-86
2023/04/17 08:07:19;;;;;;;3.08;1.70;;;;;;;12.69;83.67;100373.94;4982121;28;20041;-85
2023/04/17 08:09:46;;;;;;;5.05;1.90;;;;;;;12.89;83.13;100370.59;4976085;28;20019;-87
2023/04/17 08:12:11;;;;;;;6.50;2.28;;;;;;;13.06;81.89;100383.75;4989859;28;20023;-88
2023/04/17 08:14:37;;;;;;;8.38;2.20;;;;;;;13.28;78.53;100390.88;4976770;28;20039;-87
2023/04/17 08:17:03;;;;;;;3.67;1.63;;;;;;;13.28;79.67;100398.84;4994566;28;20062;-87
2023/04/17 08:19:28;;;;;;;4.50;2.28;;;;;;;13.46;79.97;100409.94;4995275;28;20493;-86
2023/04/17 08:22:01;;;;;;;4.82;1.60;;;;;;;13.42;81.34;100400.69;4984055;28;20121;-86
2023/04/17 08:24:27;;;;;;;3.25;1.80;;;;;;;13.45;81.30;100409.16;4988802;28;20043;-86
2023/04/17 08:26:53;;;;;;;3.70;1.80;;;;;;;13.38;79.27;100405.56;4984558;28;20030;-88
2023/04/17 08:29:19;;;;;;;2.08;1.33;;;;;;;13.44;75.37;100409.31;4994593;28;20464;-86
2023/04/17 08:31:45;;;;;;;3.15;1.58;;;;;;;13.46;75.75;100426.75;4977049;28;20114;-87
2023/04/17 08:34:10;;;;;;;4.60;1.33;;;;;;;13.58;74.46;100435.13;4981847;28;20038;-86
2023/04/17 08:36:36;;;;;;;3.67;2.25;;;;;;;13.41;78.61;100441.63;4992412;28;20038;-85
2023/04/17 08:39:01;;;;;;;4.50;2.10;;;;;;;13.40;82.99;100450.63;4995500;28;20102;-84
2023/04/17 08:41:36;;;;;;;5.82;2.33;;;;;;;13.52;84.25;100457.16;4981252;28;20104;-87
2023/04/17 08:44:02;;;;;;;7.65;2.20;;;;;;;13.49;83.48;100449.53;4996490;28;20038;-87
2023/04/17 08:46:30;;;;;;;5.68;2.45;;;;;;;13.24;84.91;100445.47;4979158;28;20030;-85
2023/04/17 08:48:56;;;;;;;6.82;2.45;;;;;;;13.05;84.31;100457.41;5002221;28;20042;-86
2023/04/17 08:51:26;;;;;;;3.80;2.75;;;;;;;12.67;87.13;100456.53;4993137;28;20058;-85
2023/04/17 08:53:53;;;;;;;4.47;2.65;;;;;;;12.98;84.69;100458.31;4964831;28;20097;-88
2023/04/17 08:56:18;;;;;;;4.40;2.42;;;;;;;12.89;83.30;100462.88;4978529;28;20070;-87
2023/04/17 08:58:44;;;;;;;5.25;2.67;;;;;;;13.05;83.36;100462.75;4961840;28;20046;-89
2023/04/17 09:01:11;;;;;;;4.40;2.45;;;;;;;12.62;89.45;100460.75;4981129;28;20035;-89
2023/04/17 09:03:42;;;;;;;6.43;2.90;;;;;;;12.62;89.95;100452.78;5000419;28;20121;-87
2023/04/17 09:06:10;;;;;;;7.15;2.30;;;;;;;12.79;89.54;100456.97;5000743;28;20117;-86
2023/04/17 09:08:37;;;;;;;5.28;2.85;;;;;;;12.88;89.12;100462.03;4987079;28;20053;-87
2023/04/17 09:11:16;;;;;;;8.95;2.80;;;;;;;13.10;88.32;100456.91;4969247;28;20043;-87
2023/04/17 09:13:41;;;;;;;6.93;3.03;;;;;;;12.99;91.08;100452.81;5000349;28;20042;-89
2023/04/17 09:16:27;;;;;;;6.43;2.78;;;;;;;13.57;86.39;100457.44;5000272;28;20037;-87
2023/04/17 09:19:04;;;;;;;8.85;2.95;;;;;;;13.56;84.59;100458.44;5002296;28;20141;-85
2023/04/17 09:21:30;;;;;;;5.68;2.60;;;;;;;13.63;84.77;100456.69;4999527;28;20038;-85
2023/04/17 09:23:58;;;;;;;4.68;2.75;;;;;;;14.00;82.98;100455.75;4992766;28;20105;-85
2023/04/17 09:26:32;;;;;;;7.15;2.50;;;;;;;14.18;80.17;100460.72;4995891;28;20038;-88
2023/04/17 09:29:00;;;;;;;5.22;2.72;;;;;;;14.29;78.96;100461.03;4981024;28;20084;-86
2023/04/17 09:31:29;;;;;;;6.43;2.63;;;;;;;14.23;78.65;100464.47;4994246;28;20022;-87
2023/04/17 09:34:02;;;;;;;10.93;3.67;;;;;;;14.20;80.21;100458.66;4984505;28;20053;-86
2023/04/17 09:36:49;;;;;;;8.50;4.35;;;;;;;13.93;81.46;100461.00;4988985;28;20073;-88
2023/04/17 09:39:19;;;;;;;15.70;5.32;;;;;;;13.85;81.33;100461.09;4984848;28;20031;-90
2023/04/17 09:41:45;;;;;;;6.63;3.75;;;;;;;13.79;82.80;100472.50;4985074;28;20035;-88
2023/04/17 09:44:24;;;;;;;5.53;2.95;;;;;;;13.85;84.50;100471.75;4997432;28;20061;-86
2023/04/17 09:46:51;;;;;;;10.20;4.05;;;;;;;13.67;85.29;100465.97;4986820;28;20137;-87
2023/04/17 09:49:39;;;;;;;8.15;3.28;;;;;;;13.39;87.02;100460.44;4994648;28;20030;-87
2023/04/17 09:52:05;;;;;;;5.70;3.00;;;;;;;13.56;86.99;100463.75;4982223;28;20046;-85
2023/04/17 09:54:38;;;;;;;11.77;5.05;;;;;;;13.65;85.69;100457.34;4990379;28;20125;-86
2023/04/17 09:57:08;;;;;;;10.43;3.88;;;;;;;13.74;85.98;100453.59;4973495;28;20039;-87
2023/04/17 09:59:38;;;;;;;10.73;4.75;;;;;;;13.92;78.67;100456.69;4990237;28;20030;-85
2023/04/17 10:02:07;;;;;;;13.15;2.60;;;;;;;14.09;78.11;100457.31;4992191;28;20062;-87
2023/04/17 10:04:35;;;;;;;6.40;2.35;;;;;;;14.53;73.74;100459.91;4983907;28;20490;-89
2023/04/17 10:07:04;;;;;;;4.03;2.22;;;;;;;14.54;69.73;100461.56;4992756;28;20031;-86
2023/04/17 10:09:30;;;;;;;7.85;1.77;;;;;;;14.42;64.87;100461.22;4999731;28;20504;-88
2023/04/17 10:11:56;;;;;;;3.35;2.10;;;;;;;14.33;67.67;100458.81;4990650;28;20046;-90
2023/04/17 10:14:27;;;;;;;3.97;2.00;;;;;;;14.15;69.87;100453.88;4993075;28;20129;-88
2023/04/17 10:16:53;;;;;;;9.45;2.10;;;;;;;14.14;71.00;100456.75;4998822;28;20030;-87
2023/04/17 10:19:33;;;;;;;4.50;2.30;;;;;;;13.98;71.01;100455.97;4986694;28;20034;-89
2023/04/17 10:22:17;;;;;;;6.10;1.95;;;;;;;13.97;71.95;100454.31;4977016;28;20093;-90
2023/04/17 10:24:44;;;;;;;6.63;2.20;;;;;;;13.90;71.58;100453.38;4981326;28;20058;-91
2023/04/17 10:27:27;;;;;;;6.30;2.35;;;;;;;13.79;73.61;100450.34;4985468;28;20082;-86
2023/04/17 10:30:01;;;;;;;6.25;2.63;;;;;;;13.79;75.35;100431.69;4989947;28;20037;-88
2023/04/17 10:32:28;;;;;;;6.82;2.30;;;;;;;13.73;74.21;100443.94;4989130;28;20034;-89
2023/04/17 10:35:16;;;;;;;4.03;2.13;;;;;;;13.79;76.03;100445.03;4986894;28;20027;-89
2023/04/17 10:37:51;;;;;;;3.85;2.00;;;;;;;13.69;77.84;100439.97;4989384;28;20120;-89
2023/04/17 10:40:22;;;;;;;8.68;2.40;;;;;;;13.78;77.30;100449.56;4992251;28;20034;-89
2023/04/17 10:43:16;;;;;;;11.05;2.30;;;;;;;13.70;77.09;100441.63;5004976;28;20042;-90
2023/04/17 10:46:01;;;;;;;4.75;2.53;;;;;;;13.62;77.01;100432.94;5000228;28;20094;-87
2023/04/17 10:48:37;;;;;;;2.70;2.00;;;;;;;13.77;77.56;100434.56;5010593;28;20042;-89
2023/04/17 10:51:25;;;;;;;7.07;2.67;;;;;;;13.80;78.32;100428.03;4983104;28;20093;-85
2023/04/17 10:54:09;;;;;;;8.45;2.30;;;;;;;13.99;77.83;100420.28;5009302;28;20027;-89
2023/04/17 10:56:36;;;;;;;6.90;3.22;;;;;;;13.85;79.91;100412.34;5004527;28;20038;-90
2023/04/17 10:59:03;;;;;;;12.45;2.88;;;;;;;13.83;82.15;100409.84;5004664;28;20181;-91
2023/04/17 11:01:47;;;;;;;13.25;4.07;;;;;;;13.96;83.04;100399.34;4981742;28;20402;-90
2023/04/17 11:04:30;;;;;;;9.73;2.45;;;;;;;14.05;81.92;100396.59;4990151;28;20035;-84
2023/04/17 11:06:56;;;;;;;13.20;3.83;;;;;;;14.12;82.69;100392.16;4994801;28;20397;-89
2023/04/17 11:09:25;;;;;;;5.78;2.28;;;;;;;14.27;82.72;100390.28;4994274;28;20054;-89
2023/04/17 11:11:51;;;;;;;18.48;6.85;;;;;;;14.38;79.66;100392.47;4992973;28;20034;-92
2023/04/17 11:14:22;;;;;;;10.75;1.92;;;;;;;14.49;76.80;100391.94;5008441;28;20038;-89
2023/04/17 11:16:51;;;;;;;4.13;1.88;;;;;;;14.64;72.62;100389.22;5007697;28;20042;-92
2023/04/17 11:19:23;;;;;;;3.47;2.00;;;;;;;14.76;68.96;100391.19;5006442;28;20039;-88
2023/04/17 11:22:10;;;;;;;8.50;3.83;;;;;;;14.89;67.40;100391.28;4998693;28;20039;-91
2023/04/17 11:24:36;;;;;;;3.88;1.75;;;;;;;15.04;67.01;100390.38;4995770;28;20030;-88
2023/04/17 11:27:02;;;;;;;10.57;2.47;;;;;;;15.31;67.27;100392.22;4991865;28;20042;-91
2023/04/17 11:29:53;;;;;;;5.55;2.33;;;;;;;15.58;64.10;100399.38;5013226;28;20042;-89
2023/04/17 11:32:22;;;;;;;11.63;4.95;;;;;;;15.84;61.81;100386.16;5013604;28;20038;-89
2023/04/17 11:34:48;;;;;;;2.63;1.52;;;;;;;15.70;61.58;100384.47;5010090;28;20034;-90
2023/04/17 11:37:15;;;;;;;7.53;2.97;;;;;;;15.88;59.13;100382.06;5011171;28;20038;-85
2023/04/17 11:39:42;;;;;;;7.15;3.40;;;;;;;16.23;56.21;100390.00;4978148;28;20042;-89
2023/04/17 11:42:10;;;;;;;7.00;2.53;;;;;;;16.78;53.82;100386.19;5001873;28;20038;-92
2023/04/17 11:45:05;;;;;;;6.80;1.75;;;;;;;17.49;51.10;100384.47;4987166;28;20039;-91
2023/04/17 11:47:31;;;;;;;10.02;4.80;;;;;;;17.83;50.08;100394.09;4984791;28;20490;-88
2023/04/17 11:49:56;;;;;;;6.20;2.60;;;;;;;17.75;48.68;100387.09;4991070;28;20112;-87
2023/04/17 11:52:22;;;;;;;8.73;4.10;;;;;;;17.62;45.86;100391.69;4999520;28;20030;-89
2023/04/17 11:54:56;;;;;;;3.67;1.85;;;;;;;17.29;45.28;100389.03;4995781;28;20042;-90
2023/04/17 11:57:22;;;;;;;2.22;1.30;;;;;;;17.15;45.99;100392.78;4993301;28;20082;-89
2023/04/17 11:59:48;;;;;;;16.00;7.20;;;;;;;17.46;45.38;100387.56;4992578;28;20037;-90
2023/04/17 12:02:14;;;;;;;1.92;1.00;;;;;;;17.40;46.02;100388.41;4986858;28;20031;-89
2023/04/17 12:04:39;;;;;;;4.25;1.70;;;;;;;17.51;45.08;100390.44;4989299;28;20049;-87
2023/04/17 12:07:06;;;;;;;1.52;0.63;;;;;;;17.25;44.17;100395.84;4994802;28;20039;-88
2023/04/17 12:09:33;;;;;;;2.60;1.30;;;;;;;17.02;44.59;100391.75;4975699;28;20031;-89
2023/04/17 12:12:08;;;;;;;2.33;1.08;;;;;;;16.57;44.78;100392.56;4987946;28;20366;-88
2023/04/17 12:14:34;;;;;;;1.85;1.13;;;;;;;16.52;46.04;100384.28;4998159;28;20038;-86
2023/04/17 12:16:59;;;;;;;1.63;0.82;;;;;;;16.32;45.23;100386.94;4996006;28;20037;-90
2023/04/17 12:19:28;;;;;;;4.75;1.40;;;;;;;16.66;44.48;100388.66;4978809;28;20033;-88
2023/04/17 12:22:06;;;;;;;6.70;2.15;;;;;;;17.14;44.05;100393.78;5003683;28;20054;-88
2023/04/17 12:24:31;;;;;;;2.75;0.85;;;;;;;17.61;43.58;100388.16;4985408;28;20046;-88
2023/04/17 12:27:00;;;;;;;1.70;0.95;;;;;;;17.55;42.41;100392.53;5001862;28;20486;-90
2023/04/17 12:29:25;;;;;;;1.98;0.82;;;;;;;17.61;41.75;100395.38;5003126;28;20421;-91
2023/04/17 12:32:03;;;;;;;1.35;0.88;;;;;;;17.47;42.51;100399.91;5006205;28;20027;-91
2023/04/17 12:34:29;;;;;;;1.08;0.90;;;;;;;17.07;43.07;100398.34;5007043;28;20127;-89
2023/04/17 12:36:57;;;;;;;1.20;1.10;;;;;;;17.03;41.93;100398.75;4990288;28;20039;-90
2023/04/17 12:39:23;;;;;;;1.50;1.25;;;;;;;16.81;43.82;100405.34;4951684;29;20043;-90
2023/04/17 12:41:48;;;;;;;1.25;1.08;;;;;;;17.05;43.43;100394.03;4960001;29;20088;-91
2023/04/17 12:44:15;;;;;;;1.25;0.88;;;;;;;16.94;43.58;100393.81;4973560;29;20062;-91
2023/04/17 12:46:41;;;;;;;2.05;1.10;;;;;;;16.81;44.43;100383.94;4972744;28;20101;-89
2023/04/17 12:49:06;;;;;;;3.55;1.20;;;;;;;16.65;45.00;100384.34;4986291;28;20141;-89
2023/04/17 12:51:36;;;;;;;1.25;0.95;;;;;;;16.83;44.96;100386.41;4985713;28;20040;-88
2023/04/17 12:54:03;;;;;;;2.05;1.05;;;;;;;16.87;44.50;100387.66;4985478;28;20038;-90
2023/04/17 12:56:29;;;;;;;3.42;1.10;;;;;;;16.91;44.22;100389.69;4987969;28;20090;-87
2023/04/17 12:58:56;;;;;;;3.67;1.10;;;;;;;16.97;44.53;100388.88;4978359;28;20027;-87
2023/04/17 13:01:24;;;;;;;1.77;0.93;;;;;;;17.24;44.33;100378.94;4973820;28;20073;-87
2023/04/17 13:03:50;;;;;;;2.72;1.23;;;;;;;17.14;44.80;100388.44;4973237;28;20327;-87
2023/04/17 13:06:17;;;;;;;2.92;1.45;;;;;;;16.87;46.02;100388.44;4973375;28;20490;-86
2023/04/17 13:08:43;;;;;;;2.05;1.27;;;;;;;16.88;45.68;100373.22;4971872;28;20035;-89
2023/04/17 13:11:15;;;;;;;1.67;1.42;;;;;;;17.22;45.08;100373.00;4973355;28;20379;-86
2023/04/17 13:13:41;;;;;;;1.42;1.30;;;;;;;17.16;46.57;100371.16;4974774;28;20112;-87
2023/04/17 13:16:09;;;;;;;1.70;1.48;;;;;;;17.15;46.01;100368.66;4977408;28;20046;-86
2023/04/17 13:18:36;;;;;;;1.23;1.00;;;;;;;17.19;44.95;100367.22;4978312;28;20532;-88
2023/04/17 13:21:02;;;;;;;2.03;1.33;;;;;;;17.05;46.32;100374.44;4979166;28;20437;-87
2023/04/17 13:23:29;;;;;;;3.42;1.90;;;;;;;17.13;46.61;100365.38;4978996;28;20394;-86
2023/04/17 13:25:57;;;;;;;2.10;1.50;;;;;;;17.21;46.03;100359.78;4978883;28;20498;-86
2023/04/17 13:28:23;;;;;;;7.45;3.95;;;;;;;17.44;45.95;100368.19;4977827;28;20130;-87
2023/04/17 13:30:49;;;;;;;5.20;2.30;;;;;;;17.34;45.78;100367.78;4979148;28;20117;-85
2023/04/17 13:33:15;;;;;;;5.85;1.80;;;;;;;17.36;45.97;100365.75;4979443;28;20122;-86
2023/04/17 13:35:43;;;;;;;3.35;1.30;;;;;;;17.13;45.00;100360.84;4979234;28;20371;-87
2023/04/17 13:38:09;;;;;;;1.65;1.45;;;;;;;17.05;44.34;100369.91;4978589;28;20038;-87
2023/04/17 13:40:37;;;;;;;1.48;1.10;;;;;;;17.10;45.17;100376.50;4979578;28;20114;-89
2023/04/17 13:43:05;;;;;;;3.92;1.10;;;;;;;17.08;44.98;100370.53;4979368;28;20035;-87
2023/04/17 13:45:32;;;;;;;5.93;1.27;;;;;;;16.96;45.78;100357.78;4977735;28;20417;-89
2023/04/17 13:47:59;;;;;;;1.73;1.10;;;;;;;16.91;46.00;100360.25;4979918;28;20101;-86
2023/04/17 13:50:25;;;;;;;3.63;1.02;;;;;;;17.09;45.84;100356.94;4979827;28;20035;-87
2023/04/17 13:52:51;;;;;;;1.75;1.20;;;;;;;17.13;46.43;100355.50;4978266;28;20031;-88
2023/04/17 13:55:17;;;;;;;2.72;1.38;;;;;;;16.78;46.03;100354.91;4979714;28;20466;-88
2023/04/17 13:57:44;;;;;;;1.85;1.52;;;;;;;16.77;46.30;100349.78;4979586;28;20414;-89
2023/04/17 14:00:12;;;;;;;1.20;1.10;;;;;;;16.63;46.89;100343.59;4978705;28;20049;-86
2023/04/17 14:02:39;;;;;;;1.50;1.20;;;;;;;16.59;46.47;100337.00;4979766;28;20382;-87
2023/04/17 14:05:06;;;;;;;1.65;1.05;;;;;;;16.77;46.41;100350.56;4979601;28;20389;-89
2023/04/17 14:07:33;;;;;;;3.63;1.17;;;;;;;16.72;47.32;100347.69;4978391;28;20099;-87
2023/04/17 14:10:00;;;;;;;1.80;1.10;;;;;;;16.83;46.11;100352.44;4979347;28;20512;-86
2023/04/17 14:12:27;;;;;;;1.13;1.02;;;;;;;16.87;46.43;100337.59;4981649;28;20470;-86
2023/04/17 14:14:55;;;;;;;1.73;1.30;;;;;;;16.91;46.64;100341.50;4983262;28;20046;-87
2023/04/17 14:17:21;;;;;;;2.78;1.40;;;;;;;16.87;46.86;100334.91;4982859;28;20089;-86
2023/04/17 14:19:47;;;;;;;2.65;0.90;;;;;;;16.84;47.56;100338.00;4981939;28;20054;-85
2023/04/17 14:22:14;;;;;;;2.10;1.05;;;;;;;16.91;46.96;100336.16;4983330;28;20093;-86
2023/04/17 14:24:45;;;;;;;1.90;1.27;;;;;;;16.87;47.00;100329.56;4981011;28;20451;-90
2023/04/17 14:27:12;;;;;;;3.05;1.50;;;;;;;16.63;48.89;100327.53;4964629;28;20125;-86
2023/04/17 14:29:38;;;;;;;4.65;1.45;;;;;;;16.67;48.46;100322.59;4981742;28;20500;-86
2023/04/17 14:32:06;;;;;;;2.10;1.30;;;;;;;16.69;48.38;100326.69;4982500;28;20113;-86
2023/04/17 14:34:32;;;;;;;3.45;1.10;;;;;;;16.76;48.62;100319.50;4983270;28;20549;-85
2023/04/17 14:36:58;;;;;;;1.48;1.25;;;;;;;16.69;49.54;100324.03;4982618;28;20160;-87
2023/04/17 14:39:25;;;;;;;1.50;1.15;;;;;;;16.76;49.45;100319.50;4981279;28;20027;-88
2023/04/17 14:41:52;;;;;;;3.22;1.42;;;;;;;16.70;49.04;100314.97;4982088;28;20066;-86
2023/04/17 14:44:19;;;;;;;12.25;5.85;;;;;;;16.45;50.28;100321.91;4982278;28;20039;-85
2023/04/17 14:46:47;;;;;;;3.60;2.10;;;;;;;16.63;51.19;100322.19;4986333;28;20042;-87
2023/04/17 14:49:13;;;;;;;1.65;1.08;;;;;;;16.71;50.28;100319.28;4990698;28;20042;-88
2023/04/17 14:51:39;;;;;;;5.13;1.38;;;;;;;16.77;50.83;100313.09;4986653;28;20182;-87
2023/04/17 14:54:10;;;;;;;1.83;1.08;;;;;;;16.82;51.82;100309.81;4987874;28;20077;-87
2023/04/17 14:56:38;;;;;;;3.10;1.80;;;;;;;16.95;51.10;100309.78;4991427;28;20046;-88
2023/04/17 14:59:04;;;;;;;21.70;14.10;;;;;;;17.13;49.31;100311.81;4988642;28;20560;-87
2023/04/17 15:01:29;;;;;;;3.05;1.40;;;;;;;17.16;49.96;100308.72;4986885;28;20039;-87
2023/04/17 15:03:56;;;;;;;3.50;1.30;;;;;;;17.17;49.42;100302.34;4989586;28;20026;-89
2023/04/17 15:06:21;;;;;;;2.22;1.90;;;;;;;17.27;49.15;100298.16;4987255;28;20031;-89
2023/04/17 15:08:47;;;;;;;1.73;1.08;;;;;;;17.26;48.83;100301.91;4971591;28;20081;-90
2023/04/17 15:11:18;;;;;;;2.55;1.40;;;;;;;17.16;49.24;100306.03;4989267;28;20085;-88
2023/04/17 15:13:47;;;;;;;2.17;1.50;;;;;;;17.29;49.92;100308.69;4991998;28;20070;-89
2023/04/17 15:16:15;;;;;;;2.70;0.80;;;;;;;17.29;49.91;100290.75;4971703;28;20062;-88
2023/04/17 15:18:40;;;;;;;2.75;1.13;;;;;;;17.35;49.11;100289.09;4987415;28;20047;-87
2023/04/17 15:21:06;;;;;;;5.82;1.20;;;;;;;17.38;49.22;100307.41;4987484;28;20039;-86
2023/04/17 15:23:33;;;;;;;2.33;1.30;;;;;;;17.24;47.73;100308.47;4986449;28;20121;-88
2023/04/17 15:26:00;;;;;;;1.90;1.27;;;;;;;17.21;48.24;100301.69;4992923;28;20038;-89
2023/04/17 15:28:27;;;;;;;4.05;1.10;;;;;;;17.12;47.27;100294.09;4993613;28;20105;-86
2023/04/17 15:30:54;;;;;;;4.63;1.30;;;;;;;16.83;48.27;100298.91;4994876;28;20030;-89
2023/04/17 15:33:20;;;;;;;1.13;1.02;;;;;;;16.76;49.08;100299.94;4993509;28;20062;-87
2023/04/17 15:35:53;;;;;;;3.03;1.40;;;;;;;16.78;49.13;100293.34;4995030;28;20027;-89
2023/04/17 15:38:38;;;;;;;7.07;3.78;;;;;;;16.80;49.18;100303.84;4997495;28;20050;-89
2023/04/17 15:41:04;;;;;;;2.70;1.00;;;;;;;16.68;50.04;100287.59;4999712;28;20023;-90
2023/04/17 15:43:29;;;;;;;7.72;0.82;;;;;;;16.56;50.93;100294.59;4998925;28;20029;-90
2023/04/17 15:45:55;;;;;;;1.77;1.10;;;;;;;16.40;51.06;100284.28;4999065;28;20050;-88
2023/04/17 15:48:21;;;;;;;4.80;1.42;;;;;;;16.44;51.07;100296.19;4999101;28;20069;-90
2023/04/17 15:50:46;;;;;;;3.58;1.40;;;;;;;16.44;50.84;100290.84;4991380;28;20034;-89
2023/04/17 15:53:12;;;;;;;3.90;1.15;;;;;;;16.47;51.08;100295.81;4963040;28;20083;-87